Fargo, North Dakota
Current Conditions -  °F | °C
As of 11:53 PM on Monday 26 Jan 2015 (Local Time) from KFAR Reporting Station
Broken Clouds Broken Clouds  
Wind Chill: 19°   Ceiling: 700
Heat Index: 26°   Visibility: 10mi
Dew Point: 23°   Wind: 6mph
Humidity: 88%   Direction: 60°ENE
Pressure: 30.03"   Gusts: NA
Location:  46.88°N, 96.78°W
Report Text: KFAR 270553Z 06005KT 10SM BKN007 M03/M05 A3003 RMK AO2 SLP180 I1000 I6000 T10331050 11006 21039 400671039 51009
Loading
Personal Weather Stations






























Interactive Weather Map New forecast layout! Learn more

10-Day Weather Forecast

Advertisements
Track Severe Weather on mobile